createdAt,value
2022-10-02T00:00:48.799Z,99.79
2022-10-02T00:01:47.650Z,99.68
2022-10-02T00:02:48.494Z,99.68
2022-10-02T00:03:46.267Z,99.68
2022-10-02T00:04:49.138Z,99.58
2022-10-02T00:05:47.934Z,99.68
2022-10-02T00:06:48.409Z,99.58
2022-10-02T00:07:48.069Z,99.48
2022-10-02T00:08:47.048Z,99.27
2022-10-02T00:09:48.405Z,99.27
2022-10-02T00:10:46.018Z,99.23
2022-10-02T00:11:46.171Z,99.18
2022-10-02T00:12:45.988Z,99.18
2022-10-02T00:13:45.978Z,99.13
2022-10-02T00:14:45.961Z,99.02
2022-10-02T00:15:45.983Z,99.02
2022-10-02T00:16:46.012Z,99.02
2022-10-02T00:17:45.947Z,98.93
2022-10-02T00:18:45.898Z,98.93
2022-10-02T00:19:45.921Z,98.93
2022-10-02T00:20:45.891Z,98.93
2022-10-02T00:21:45.910Z,98.82
2022-10-02T00:22:45.966Z,98.82
2022-10-02T00:23:48.511Z,98.72
2022-10-02T00:24:46.047Z,98.61
2022-10-02T00:25:45.841Z,98.72
2022-10-02T00:26:46.949Z,98.72
2022-10-02T00:27:45.921Z,98.72
2022-10-02T00:28:45.962Z,98.61
2022-10-02T00:29:46.284Z,98.72
2022-10-02T00:30:45.813Z,98.82
2022-10-02T00:31:45.827Z,98.82
2022-10-02T00:32:45.764Z,98.82
2022-10-02T00:33:45.773Z,98.82
2022-10-02T00:34:45.744Z,98.93
2022-10-02T00:35:45.754Z,98.93
2022-10-02T00:36:45.734Z,98.82
2022-10-02T00:37:45.726Z,98.72
2022-10-02T00:38:45.745Z,98.72
2022-10-02T00:39:45.709Z,98.72
2022-10-02T00:40:45.702Z,98.72
2022-10-02T00:41:46.934Z,98.93
2022-10-02T00:42:46.996Z,99.07
2022-10-02T00:43:47.447Z,99.18
2022-10-02T00:44:45.678Z,99.07
2022-10-02T00:45:45.794Z,99.18
2022-10-02T00:46:51.927Z,99.18
2022-10-02T00:47:47.347Z,99.18
2022-10-02T00:48:47.344Z,99.27
2022-10-02T00:49:48.519Z,99.18
2022-10-02T00:50:46.481Z,99.18
2022-10-02T00:51:45.725Z,98.93
2022-10-02T00:52:46.437Z,98.82
2022-10-02T00:53:46.536Z,98.72
2022-10-02T00:54:45.562Z,98.61
2022-10-02T00:55:45.525Z,98.61
2022-10-02T00:56:45.528Z,98.61
2022-10-02T00:57:45.536Z,98.77
2022-10-02T00:58:45.500Z,98.72
2022-10-02T00:59:45.483Z,98.77
2022-10-02T01:00:45.509Z,98.72
2022-10-02T01:01:47.364Z,98.72
2022-10-02T01:02:46.473Z,98.77
2022-10-02T01:03:45.559Z,98.72
2022-10-02T01:04:46.843Z,98.77
2022-10-02T01:05:48.109Z,98.77
2022-10-02T01:06:46.865Z,98.77
2022-10-02T01:07:45.424Z,98.77
2022-10-02T01:08:49.015Z,98.77
2022-10-02T01:09:47.753Z,98.77
2022-10-02T01:10:45.534Z,98.86
2022-10-02T01:11:47.411Z,98.77
2022-10-02T01:12:46.366Z,98.56
2022-10-02T01:13:47.915Z,98.36
2022-10-02T01:14:45.483Z,98.31
2022-10-02T01:15:46.694Z,98.31
2022-10-02T01:16:45.385Z,98.36
2022-10-02T01:17:48.384Z,98.36
2022-10-02T01:18:45.280Z,98.36
2022-10-02T01:19:45.261Z,98.36
2022-10-02T01:20:45.266Z,98.56
2022-10-02T01:21:46.530Z,98.46
2022-10-02T01:22:45.634Z,98.56
2022-10-02T01:23:47.948Z,98.56
2022-10-02T01:24:46.120Z,98.66
2022-10-02T01:25:47.452Z,98.56
2022-10-02T01:26:45.251Z,98.56
2022-10-02T01:27:46.728Z,98.46
2022-10-02T01:28:45.202Z,98.46
2022-10-02T01:29:46.256Z,98.25
2022-10-02T01:30:46.666Z,98.15
2022-10-02T01:31:46.515Z,98.25
2022-10-02T01:32:45.942Z,98.25
2022-10-02T01:33:45.672Z,98.25
2022-10-02T01:34:48.117Z,98.15
2022-10-02T01:35:46.440Z,98.15
2022-10-02T01:36:46.158Z,98.25
2022-10-02T01:37:45.942Z,98.36
2022-10-02T01:38:46.024Z,98.36
2022-10-02T01:39:46.452Z,98.46
2022-10-02T01:40:45.054Z,98.66
2022-10-02T01:41:45.044Z,98.66
2022-10-02T01:42:45.034Z,98.56
2022-10-02T01:43:45.046Z,98.66
2022-10-02T01:44:45.015Z,98.77
2022-10-02T01:45:45.076Z,98.66
2022-10-02T01:46:44.995Z,98.81
2022-10-02T01:47:44.985Z,98.71
2022-10-02T01:48:44.984Z,98.66
2022-10-02T01:49:44.966Z,98.71
2022-10-02T01:50:44.955Z,98.66
2022-10-02T01:51:44.928Z,98.71
2022-10-02T01:52:48.810Z,98.71
2022-10-02T01:53:45.734Z,98.61
2022-10-02T01:54:45.015Z,98.61
2022-10-02T01:55:44.895Z,98.71
2022-10-02T01:56:45.604Z,98.81
2022-10-02T01:57:45.880Z,98.91
2022-10-02T01:58:44.895Z,98.91
2022-10-02T01:59:46.019Z,99.02
2022-10-02T02:00:46.718Z,99.02
2022-10-02T02:01:45.010Z,99.02
2022-10-02T02:02:45.898Z,99.02
2022-10-02T02:03:46.661Z,99.11
2022-10-02T02:04:45.974Z,99.11
2022-10-02T02:05:45.826Z,99.11
2022-10-02T02:06:49.374Z,99.22
2022-10-02T02:07:46.089Z,99.22
2022-10-02T02:08:45.780Z,99.32
2022-10-02T02:09:44.832Z,99.32
2022-10-02T02:10:48.093Z,99.32
2022-10-02T02:11:44.786Z,99.32
2022-10-02T02:12:48.970Z,99.43
2022-10-02T02:13:45.687Z,99.32
2022-10-02T02:14:44.724Z,99.43
2022-10-02T02:15:44.678Z,99.43
2022-10-02T02:16:44.729Z,99.43
2022-10-02T02:17:44.679Z,99.43
2022-10-02T02:18:44.641Z,99.43
2022-10-02T02:19:44.681Z,99.57
2022-10-02T02:20:44.625Z,99.57
2022-10-02T02:21:44.631Z,99.57
2022-10-02T02:22:44.627Z,99.57
2022-10-02T02:23:44.591Z,99.52
2022-10-02T02:24:45.490Z,99.52
2022-10-02T02:25:44.926Z,99.22
2022-10-02T02:26:49.713Z,99.11
2022-10-02T02:27:47.384Z,99.02
2022-10-02T02:28:44.691Z,99.11
2022-10-02T02:29:44.607Z,99.11
2022-10-02T02:30:47.167Z,99.11
2022-10-02T02:31:46.426Z,99.11
2022-10-02T02:32:45.930Z,99.22
2022-10-02T02:33:44.621Z,99.22
2022-10-02T02:34:45.343Z,99.22
2022-10-02T02:35:44.580Z,99.27
2022-10-02T02:36:44.496Z,99.32
2022-10-02T02:37:44.539Z,99.37
2022-10-02T02:38:47.463Z,99.32
2022-10-02T02:39:45.531Z,99.47
2022-10-02T02:40:46.357Z,99.47
2022-10-02T02:41:46.161Z,99.57
2022-10-02T02:42:45.279Z,99.57
2022-10-02T02:43:46.282Z,99.68
2022-10-02T02:44:45.633Z,99.68
2022-10-02T02:45:44.798Z,99.78
2022-10-02T02:46:49.164Z,99.78
2022-10-02T02:47:45.485Z,99.78
2022-10-02T02:48:46.223Z,99.98
2022-10-02T02:49:48.392Z,99.88
2022-10-02T02:50:44.821Z,99.78
2022-10-02T02:51:44.487Z,99.78
2022-10-02T02:52:45.664Z,99.78
2022-10-02T02:53:44.386Z,99.68
2022-10-02T02:54:46.239Z,99.57
2022-10-02T02:55:45.238Z,99.78
2022-10-02T02:56:44.630Z,99.78
2022-10-02T02:57:44.404Z,99.68
2022-10-02T02:58:45.126Z,99.68
2022-10-02T02:59:45.642Z,99.78
2022-10-02T03:00:45.430Z,99.88
2022-10-02T03:01:44.380Z,99.78
2022-10-02T03:02:46.572Z,99.88
2022-10-02T03:03:45.075Z,99.88
2022-10-02T03:04:48.355Z,99.78
2022-10-02T03:05:45.365Z,99.78
2022-10-02T03:06:44.253Z,99.88
2022-10-02T03:07:45.105Z,99.68
2022-10-02T03:08:44.355Z,99.78
2022-10-02T03:09:44.995Z,99.88
2022-10-02T03:10:46.784Z,99.78
2022-10-02T03:11:45.128Z,99.78
2022-10-02T03:12:44.105Z,99.78
2022-10-02T03:13:44.931Z,99.88
2022-10-02T03:14:44.078Z,99.98
2022-10-02T03:15:44.060Z,99.99
2022-10-02T03:16:44.052Z,99.99
2022-10-02T03:17:44.022Z,99.99
2022-10-02T03:18:44.020Z,99.99
2022-10-02T03:19:44.102Z,99.99
2022-10-02T03:20:43.990Z,99.99
2022-10-02T03:21:44.006Z,99.99
2022-10-02T03:22:44.033Z,99.99
2022-10-02T03:23:43.961Z,99.99
2022-10-02T03:24:46.001Z,99.99
2022-10-02T03:25:44.845Z,99.99
2022-10-02T03:26:44.622Z,99.99
2022-10-02T03:27:44.262Z,99.99
2022-10-02T03:28:55.658Z,99.99
2022-10-02T03:29:45.016Z,99.99
2022-10-02T03:30:43.913Z,99.99
2022-10-02T03:31:43.970Z,99.99
2022-10-02T03:32:43.887Z,99.99
2022-10-02T03:33:44.845Z,99.99
2022-10-02T03:34:43.949Z,99.99
2022-10-02T03:35:43.898Z,99.99
2022-10-02T03:36:46.096Z,99.99
2022-10-02T03:37:43.858Z,99.99
2022-10-02T03:38:50.111Z,99.99
2022-10-02T03:39:46.649Z,99.99
2022-10-02T03:40:44.692Z,99.99
2022-10-02T03:41:44.462Z,99.99
2022-10-02T03:42:43.942Z,99.99
2022-10-02T03:43:44.180Z,99.99
2022-10-02T03:44:43.896Z,99.99
2022-10-02T03:45:51.302Z,99.99
2022-10-02T03:46:45.613Z,99.99
2022-10-02T03:47:44.731Z,99.99
2022-10-02T03:48:46.911Z,99.99
2022-10-02T03:49:45.172Z,99.99
2022-10-02T03:50:45.250Z,99.99
2022-10-02T03:51:44.598Z,99.99
2022-10-02T03:52:44.624Z,99.99
2022-10-02T03:53:45.891Z,99.99
2022-10-02T03:54:43.738Z,99.99
2022-10-02T03:55:44.637Z,99.99
2022-10-02T03:56:43.772Z,99.99
2022-10-02T03:57:44.514Z,99.99
2022-10-02T03:58:43.714Z,99.99
2022-10-02T03:59:44.359Z,99.99
2022-10-02T04:00:45.262Z,99.99
2022-10-02T04:01:48.953Z,99.99
2022-10-02T04:02:45.588Z,99.99
2022-10-02T04:03:44.489Z,99.99
2022-10-02T04:04:47.165Z,99.99
2022-10-02T04:05:46.444Z,99.99
2022-10-02T04:06:43.830Z,99.99
2022-10-02T04:07:43.645Z,99.99
2022-10-02T04:08:46.024Z,99.99
2022-10-02T04:09:47.397Z,99.99
2022-10-02T04:10:44.053Z,99.99
2022-10-02T04:11:44.385Z,99.99
2022-10-02T04:12:44.410Z,99.99
2022-10-02T04:13:44.856Z,99.99
2022-10-02T04:14:43.485Z,99.99
2022-10-02T04:15:44.485Z,99.93
2022-10-02T04:16:45.187Z,99.82
2022-10-02T04:17:43.396Z,99.93
2022-10-02T04:18:44.780Z,99.82
2022-10-02T04:19:44.784Z,99.82
2022-10-02T04:20:43.725Z,99.93
2022-10-02T04:21:45.273Z,99.99
2022-10-02T04:22:43.364Z,99.99
2022-10-02T04:23:44.929Z,99.99
2022-10-02T04:24:43.502Z,99.99
2022-10-02T04:25:48.979Z,99.93
2022-10-02T04:26:43.321Z,99.93
2022-10-02T04:27:47.579Z,99.82
2022-10-02T04:28:43.243Z,99.72
2022-10-02T04:29:43.285Z,99.52
2022-10-02T04:30:43.265Z,99.31
2022-10-02T04:31:43.284Z,99.41
2022-10-02T04:32:43.203Z,99.41
2022-10-02T04:33:43.205Z,99.31
2022-10-02T04:34:43.165Z,99.16
2022-10-02T04:35:43.158Z,98.96
2022-10-02T04:36:43.146Z,98.96
2022-10-02T04:37:43.147Z,98.90
2022-10-02T04:38:43.128Z,98.86
2022-10-02T04:39:46.497Z,98.96
2022-10-02T04:40:43.119Z,98.65
2022-10-02T04:41:43.096Z,98.75
2022-10-02T04:42:43.075Z,98.65
2022-10-02T04:43:43.086Z,98.45
2022-10-02T04:44:43.098Z,98.45
2022-10-02T04:45:43.099Z,98.55
2022-10-02T04:46:43.034Z,98.45
2022-10-02T04:47:43.036Z,98.35
2022-10-02T04:48:43.017Z,98.35
2022-10-02T04:49:43.028Z,98.20
2022-10-02T04:50:43.002Z,98.04
2022-10-02T04:51:42.987Z,97.89
2022-10-02T04:52:42.996Z,97.79
2022-10-02T04:53:42.988Z,97.49
2022-10-02T04:54:42.957Z,97.38
2022-10-02T04:55:42.959Z,97.17
2022-10-02T04:56:42.947Z,97.17
2022-10-02T04:57:42.954Z,97.08
2022-10-02T04:58:42.910Z,96.97
2022-10-02T04:59:42.909Z,96.87
2022-10-02T05:00:42.942Z,96.97
2022-10-02T05:01:42.931Z,96.87
2022-10-02T05:02:42.893Z,96.67
2022-10-02T05:03:42.891Z,96.77
2022-10-02T05:04:42.848Z,96.87
2022-10-02T05:05:42.854Z,96.97
2022-10-02T05:06:42.821Z,97.17
2022-10-02T05:07:42.855Z,97.38
2022-10-02T05:08:42.800Z,97.58
2022-10-02T05:09:42.791Z,97.64
2022-10-02T05:10:42.791Z,97.69
2022-10-02T05:11:42.777Z,97.64
2022-10-02T05:12:42.762Z,97.54
2022-10-02T05:13:42.782Z,97.74
2022-10-02T05:14:42.755Z,97.64
2022-10-02T05:15:42.739Z,97.64
2022-10-02T05:16:42.813Z,97.54
2022-10-02T05:17:42.723Z,97.54
2022-10-02T05:18:42.723Z,97.74
2022-10-02T05:19:42.715Z,97.74
2022-10-02T05:20:42.682Z,97.74
2022-10-02T05:21:42.691Z,97.54
2022-10-02T05:22:42.674Z,97.44
2022-10-02T05:23:42.660Z,97.44
2022-10-02T05:24:42.668Z,97.33
2022-10-02T05:25:42.626Z,97.24
2022-10-02T05:26:42.637Z,96.92
2022-10-02T05:27:42.615Z,96.92
2022-10-02T05:28:42.635Z,97.03
2022-10-02T05:29:42.596Z,96.92
2022-10-02T05:30:42.585Z,96.83
2022-10-02T05:31:42.634Z,96.62
2022-10-02T05:32:42.566Z,96.37
2022-10-02T05:33:47.422Z,95.72
2022-10-02T05:34:43.577Z,94.70
2022-10-02T05:35:42.537Z,93.84
2022-10-02T05:36:42.516Z,93.38
2022-10-02T05:37:42.550Z,93.02
2022-10-02T05:38:42.526Z,93.12
2022-10-02T05:39:42.525Z,93.63
2022-10-02T05:40:42.477Z,93.38
2022-10-02T05:41:42.473Z,93.22
2022-10-02T05:42:43.319Z,92.67
2022-10-02T05:43:42.448Z,92.61
2022-10-02T05:44:42.457Z,93.32
2022-10-02T05:45:42.426Z,93.77
2022-10-02T05:46:42.468Z,94.38
2022-10-02T05:47:42.416Z,94.59
2022-10-02T05:48:42.398Z,94.79
2022-10-02T05:49:42.414Z,94.90
2022-10-02T05:50:42.378Z,94.90
2022-10-02T05:51:42.370Z,95.20
2022-10-02T05:52:42.358Z,95.10
2022-10-02T05:53:42.371Z,95.00
2022-10-02T05:54:42.361Z,95.00
2022-10-02T05:55:42.320Z,95.00
2022-10-02T05:56:42.311Z,94.90
2022-10-02T05:57:42.299Z,94.79
2022-10-02T05:58:42.299Z,94.65
2022-10-02T05:59:42.302Z,94.65
2022-10-02T06:00:42.343Z,94.65
2022-10-02T06:01:42.318Z,94.45
2022-10-02T06:02:42.251Z,94.14
2022-10-02T06:03:42.245Z,93.73
2022-10-02T06:04:42.290Z,93.89
2022-10-02T06:05:42.220Z,93.28
2022-10-02T06:06:42.203Z,93.28
2022-10-02T06:07:42.209Z,92.83
2022-10-02T06:08:42.213Z,92.83
2022-10-02T06:09:42.283Z,92.63
2022-10-02T06:10:42.253Z,92.27
2022-10-02T06:11:42.290Z,91.97
2022-10-02T06:12:42.165Z,92.07
2022-10-02T06:13:42.132Z,91.97
2022-10-02T06:14:42.155Z,92.07
2022-10-02T06:15:42.128Z,92.68
2022-10-02T06:16:42.174Z,93.09
2022-10-02T06:17:42.198Z,93.44
2022-10-02T06:18:42.108Z,94.15
2022-10-02T06:19:42.080Z,95.12
2022-10-02T06:20:42.071Z,95.62
2022-10-02T06:21:42.076Z,96.03
2022-10-02T06:22:42.045Z,96.34
2022-10-02T06:23:42.036Z,96.84
2022-10-02T06:24:42.028Z,97.25
2022-10-02T06:25:42.013Z,97.56
2022-10-02T06:26:42.005Z,97.71
2022-10-02T06:27:42.102Z,97.56
2022-10-02T06:28:41.976Z,97.61
2022-10-02T06:29:41.966Z,97.46
2022-10-02T06:30:41.988Z,97.46
2022-10-02T06:31:42.007Z,97.56
2022-10-02T06:32:41.944Z,97.77
2022-10-02T06:33:41.944Z,97.56
2022-10-02T06:34:45.804Z,97.46
2022-10-02T06:35:42.943Z,97.25
2022-10-02T06:36:41.891Z,97.36
2022-10-02T06:37:41.924Z,97.25
2022-10-02T06:38:41.900Z,97.16
2022-10-02T06:39:42.013Z,97.05
2022-10-02T06:40:41.999Z,96.84
2022-10-02T06:41:42.155Z,96.64
2022-10-02T06:42:41.921Z,96.54
2022-10-02T06:43:41.960Z,96.60
2022-10-02T06:44:41.989Z,96.30
2022-10-02T06:45:42.043Z,95.98
2022-10-02T06:46:41.796Z,96.09
2022-10-02T06:47:41.784Z,96.39
2022-10-02T06:48:41.781Z,96.19
2022-10-02T06:49:41.762Z,96.19
2022-10-02T06:50:41.770Z,96.15
2022-10-02T06:51:41.771Z,95.74
2022-10-02T06:52:41.731Z,95.74
2022-10-02T06:53:41.735Z,95.53
2022-10-02T06:54:41.710Z,95.53
2022-10-02T06:55:41.714Z,95.48
2022-10-02T06:56:41.692Z,95.64
2022-10-02T06:57:41.679Z,95.43
2022-10-02T06:58:41.703Z,95.43
2022-10-02T06:59:41.653Z,95.33
2022-10-02T07:00:41.809Z,95.13
2022-10-02T07:01:41.716Z,94.88
2022-10-02T07:02:41.625Z,94.47
2022-10-02T07:03:41.654Z,94.37
2022-10-02T07:04:41.794Z,94.62
2022-10-02T07:05:41.595Z,94.72
2022-10-02T07:06:41.652Z,95.13
2022-10-02T07:07:41.580Z,95.03
2022-10-02T07:08:41.580Z,95.17
2022-10-02T07:09:41.556Z,95.13
2022-10-02T07:10:41.545Z,94.72
2022-10-02T07:11:41.539Z,94.62
2022-10-02T07:12:41.525Z,94.31
2022-10-02T07:13:41.518Z,94.17
2022-10-02T07:14:41.543Z,94.21
2022-10-02T07:15:41.486Z,94.42
2022-10-02T07:16:41.640Z,94.62
2022-10-02T07:17:41.468Z,94.62
2022-10-02T07:18:41.460Z,94.72
2022-10-02T07:19:41.467Z,94.92
2022-10-02T07:20:41.438Z,95.03
2022-10-02T07:21:41.428Z,94.92
2022-10-02T07:22:45.121Z,94.57
2022-10-02T07:23:41.409Z,93.96
2022-10-02T07:24:41.466Z,93.35
2022-10-02T07:25:41.389Z,93.10
2022-10-02T07:26:41.387Z,92.90
2022-10-02T07:27:41.368Z,93.05
2022-10-02T07:28:41.364Z,93.35
2022-10-02T07:29:41.349Z,93.55
2022-10-02T07:30:41.357Z,93.25
2022-10-02T07:31:41.502Z,93.76
2022-10-02T07:32:41.320Z,93.86
2022-10-02T07:33:41.299Z,94.07
2022-10-02T07:34:41.299Z,93.41
2022-10-02T07:35:41.301Z,92.90
2022-10-02T07:36:41.292Z,92.90
2022-10-02T07:37:41.276Z,92.60
2022-10-02T07:38:41.283Z,92.04
2022-10-02T07:39:41.257Z,91.64
2022-10-02T07:40:41.237Z,91.69
2022-10-02T07:41:41.241Z,91.33
2022-10-02T07:42:41.210Z,91.53
2022-10-02T07:43:41.189Z,91.33
2022-10-02T07:44:41.206Z,91.39
2022-10-02T07:45:41.234Z,90.99
2022-10-02T07:46:41.182Z,90.78
2022-10-02T07:47:41.155Z,90.37
2022-10-02T07:48:41.132Z,90.37
2022-10-02T07:49:41.132Z,90.58
2022-10-02T07:50:41.124Z,90.33
2022-10-02T07:51:41.137Z,90.13
2022-10-02T07:52:41.113Z,90.27
2022-10-02T07:53:41.095Z,90.23
2022-10-02T07:54:41.078Z,89.88
2022-10-02T07:55:41.103Z,89.48
2022-10-02T07:56:41.054Z,88.93
2022-10-02T07:57:41.054Z,88.32
2022-10-02T07:58:41.032Z,88.21
2022-10-02T07:59:41.064Z,88.42
2022-10-02T08:00:41.053Z,88.76
2022-10-02T08:01:41.091Z,88.52
2022-10-02T08:02:40.986Z,88.52
2022-10-02T08:03:41.041Z,87.26
2022-10-02T08:04:40.967Z,87.06
2022-10-02T08:05:40.976Z,86.90
2022-10-02T08:06:40.965Z,87.40
2022-10-02T08:07:40.974Z,87.30
2022-10-02T08:08:40.949Z,87.10
2022-10-02T08:09:40.958Z,87.61
2022-10-02T08:10:40.920Z,87.06
2022-10-02T08:11:40.937Z,86.86
2022-10-02T08:12:40.917Z,86.31
2022-10-02T08:13:40.915Z,84.78
2022-10-02T08:14:40.895Z,84.89
2022-10-02T08:15:40.879Z,85.36
2022-10-02T08:16:41.091Z,84.64
2022-10-02T08:17:40.868Z,84.55
2022-10-02T08:18:40.840Z,83.69
2022-10-02T08:19:40.898Z,83.53
2022-10-02T08:20:40.816Z,84.00
2022-10-02T08:21:40.804Z,83.69
2022-10-02T08:22:40.809Z,83.59
2022-10-02T08:23:40.792Z,83.90
2022-10-02T08:24:40.781Z,84.00
2022-10-02T08:25:40.753Z,83.49
2022-10-02T08:26:41.281Z,83.59
2022-10-02T08:27:40.804Z,84.00
2022-10-02T08:28:40.724Z,84.10
2022-10-02T08:29:40.773Z,83.69
2022-10-02T08:30:40.696Z,84.04
2022-10-02T08:31:40.742Z,83.90
2022-10-02T08:32:40.689Z,83.29
2022-10-02T08:33:40.664Z,83.49
2022-10-02T08:34:40.720Z,83.53
2022-10-02T08:35:40.645Z,83.94
2022-10-02T08:36:40.659Z,83.53
2022-10-02T08:37:40.641Z,84.04
2022-10-02T08:38:40.645Z,83.73
2022-10-02T08:39:40.605Z,83.63
2022-10-02T08:40:40.662Z,84.04
2022-10-02T08:41:40.596Z,84.04
2022-10-02T08:42:40.594Z,84.24
2022-10-02T08:43:40.586Z,84.58
2022-10-02T08:44:40.552Z,84.78
2022-10-02T08:45:40.604Z,84.85
2022-10-02T08:46:40.551Z,84.64
2022-10-02T08:47:40.528Z,84.50
2022-10-02T08:48:40.517Z,83.59
2022-10-02T08:49:40.517Z,83.09
2022-10-02T08:50:40.496Z,82.98
2022-10-02T08:51:40.489Z,83.80
2022-10-02T08:52:40.474Z,83.59
2022-10-02T08:53:40.490Z,83.49
2022-10-02T08:54:40.467Z,83.25
2022-10-02T08:55:40.434Z,82.64
2022-10-02T08:56:40.427Z,82.40
2022-10-02T08:57:40.420Z,81.59
2022-10-02T08:58:40.490Z,81.39
2022-10-02T08:59:40.392Z,82.03
2022-10-02T09:00:40.417Z,81.90
2022-10-02T09:01:40.379Z,82.20
2022-10-02T09:02:40.402Z,81.59
2022-10-02T09:03:40.358Z,81.39
2022-10-02T09:04:40.362Z,81.99
2022-10-02T09:05:40.380Z,81.93
2022-10-02T09:06:40.340Z,82.34
2022-10-02T09:07:40.312Z,82.54
2022-10-02T09:08:40.337Z,82.24
2022-10-02T09:09:40.320Z,82.14
2022-10-02T09:10:40.288Z,81.99
2022-10-02T09:11:40.271Z,81.99
2022-10-02T09:12:40.257Z,81.59
2022-10-02T09:13:40.276Z,81.49
2022-10-02T09:14:40.234Z,81.59
2022-10-02T09:15:40.236Z,81.69
2022-10-02T09:16:40.465Z,81.69
2022-10-02T09:17:40.203Z,81.59
2022-10-02T09:18:40.194Z,82.10
2022-10-02T09:19:40.214Z,81.99
2022-10-02T09:20:40.174Z,81.99
2022-10-02T09:21:40.156Z,81.99
2022-10-02T09:22:40.166Z,82.40
2022-10-02T09:23:40.126Z,82.54
2022-10-02T09:24:40.129Z,82.84
2022-10-02T09:25:40.147Z,82.54
2022-10-02T09:26:40.117Z,82.54
2022-10-02T09:27:40.097Z,82.70
2022-10-02T09:28:40.093Z,82.75
2022-10-02T09:29:40.077Z,82.64
2022-10-02T09:30:40.076Z,82.84
2022-10-02T09:31:40.144Z,82.95
2022-10-02T09:32:40.059Z,83.04
2022-10-02T09:33:40.038Z,83.25
2022-10-02T09:34:40.028Z,82.95
2022-10-02T09:35:40.035Z,83.15
2022-10-02T09:36:40.358Z,82.64
2022-10-02T09:37:39.991Z,82.81
2022-10-02T09:38:39.980Z,82.70
2022-10-02T09:39:40.001Z,82.60
2022-10-02T09:40:39.978Z,82.44
2022-10-02T09:41:39.954Z,82.24
2022-10-02T09:42:39.973Z,81.93
2022-10-02T09:43:39.929Z,81.83
2022-10-02T09:44:39.937Z,81.99
2022-10-02T09:45:39.969Z,81.90
2022-10-02T09:46:40.049Z,81.73
2022-10-02T09:47:39.886Z,82.30
2022-10-02T09:48:39.872Z,81.69
2022-10-02T09:49:39.864Z,81.90
2022-10-02T09:50:39.888Z,81.49
2022-10-02T09:51:39.855Z,81.09
2022-10-02T09:52:42.830Z,80.84
2022-10-02T09:53:39.825Z,81.05
2022-10-02T09:54:39.813Z,80.74
2022-10-02T09:55:39.832Z,80.24
2022-10-02T09:56:39.837Z,80.34
2022-10-02T09:57:39.817Z,80.30
2022-10-02T09:58:39.764Z,79.69
2022-10-02T09:59:39.754Z,79.66
2022-10-02T10:00:39.837Z,78.95
2022-10-02T10:01:40.825Z,77.60
2022-10-02T10:02:39.783Z,77.15
2022-10-02T10:03:39.739Z,76.62
2022-10-02T10:05:04.116Z,76.42
2022-10-02T10:05:40.702Z,76.62
2022-10-02T10:06:40.029Z,76.55
2022-10-02T10:07:39.658Z,76.82
2022-10-02T10:08:39.658Z,76.62
2022-10-02T10:09:39.647Z,76.82
2022-10-02T10:10:39.658Z,77.22
2022-10-02T10:11:39.869Z,77.22
2022-10-02T10:12:39.614Z,77.15
2022-10-02T10:13:39.607Z,77.29
2022-10-02T10:14:39.600Z,78.24
2022-10-02T10:15:39.608Z,78.95
2022-10-02T10:16:39.632Z,79.69
2022-10-02T10:17:39.574Z,79.69
2022-10-02T10:18:39.581Z,80.44
2022-10-02T10:19:39.549Z,80.18
2022-10-02T10:20:39.530Z,80.78
2022-10-02T10:21:39.995Z,80.98
2022-10-02T10:22:39.527Z,81.90
2022-10-02T10:23:39.503Z,82.14
2022-10-02T10:24:39.503Z,82.54
2022-10-02T10:25:39.501Z,83.25
2022-10-02T10:26:39.485Z,84.06
2022-10-02T10:27:39.494Z,84.27
2022-10-02T10:28:39.463Z,84.16
2022-10-02T10:29:39.451Z,82.64
2022-10-02T10:30:39.454Z,81.93
2022-10-02T10:31:39.831Z,82.90
2022-10-02T10:32:39.406Z,81.76
2022-10-02T10:33:39.390Z,81.55
2022-10-02T10:34:39.394Z,81.85
2022-10-02T10:35:39.363Z,81.31
2022-10-02T10:36:42.205Z,80.80
2022-10-02T10:37:40.367Z,79.79
2022-10-02T10:38:39.347Z,79.79
2022-10-02T10:39:39.325Z,79.49
2022-10-02T10:40:39.346Z,79.90
2022-10-02T10:41:39.755Z,80.84
2022-10-02T10:42:56.376Z,81.96
2022-10-02T10:43:40.287Z,82.10
2022-10-02T10:44:39.292Z,82.10
2022-10-02T10:45:39.333Z,82.03
2022-10-02T10:46:39.269Z,82.10
2022-10-02T10:47:39.247Z,81.99
2022-10-02T10:48:39.253Z,81.90
2022-10-02T10:49:39.225Z,81.99
2022-10-02T10:50:39.228Z,81.49
2022-10-02T10:51:39.413Z,81.29
2022-10-02T10:52:39.202Z,81.49
2022-10-02T10:53:39.187Z,81.59
2022-10-02T10:54:39.168Z,80.78
2022-10-02T10:55:39.193Z,80.72
2022-10-02T10:56:39.148Z,79.80
2022-10-02T10:57:39.138Z,80.21
2022-10-02T10:58:39.152Z,80.52
2022-10-02T10:59:39.129Z,80.45
2022-10-02T11:00:39.210Z,80.96
2022-10-02T11:01:39.679Z,81.16
2022-10-02T11:02:39.198Z,81.32
2022-10-02T11:03:39.074Z,81.93
2022-10-02T11:04:39.083Z,81.93
2022-10-02T11:05:39.062Z,82.34
2022-10-02T11:06:41.837Z,82.14
2022-10-02T11:07:40.597Z,82.44
2022-10-02T11:08:39.032Z,82.64
2022-10-02T11:09:39.022Z,82.84
2022-10-02T11:10:39.012Z,83.04
2022-10-02T11:11:39.586Z,82.95
2022-10-02T11:12:39.162Z,83.45
2022-10-02T11:13:38.964Z,83.86
2022-10-02T11:14:38.970Z,84.81
2022-10-02T11:15:38.943Z,85.42
2022-10-02T11:16:39.018Z,85.52
2022-10-02T11:17:38.929Z,85.82
2022-10-02T11:18:38.918Z,85.82
2022-10-02T11:19:38.951Z,85.62
2022-10-02T11:20:38.924Z,85.72
2022-10-02T11:21:39.282Z,86.83
2022-10-02T11:22:38.886Z,87.14
2022-10-02T11:23:38.888Z,86.98
2022-10-02T11:24:38.883Z,88.34
2022-10-02T11:25:38.867Z,88.95
2022-10-02T11:26:38.837Z,89.55
2022-10-02T11:27:38.832Z,90.00
2022-10-02T11:28:38.871Z,90.81
2022-10-02T11:29:38.826Z,90.92
2022-10-02T11:30:41.674Z,91.83
2022-10-02T11:31:39.273Z,90.81
2022-10-02T11:32:38.780Z,91.56
2022-10-02T11:33:38.778Z,91.67
2022-10-02T11:34:38.804Z,90.96
2022-10-02T11:35:38.933Z,90.86
2022-10-02T11:36:38.739Z,90.90
2022-10-02T11:37:38.767Z,90.29
2022-10-02T11:38:38.710Z,90.70
2022-10-02T11:39:38.784Z,91.20
2022-10-02T11:40:38.709Z,91.00
2022-10-02T11:41:39.192Z,91.10
2022-10-02T11:42:38.682Z,91.61
2022-10-02T11:43:43.279Z,89.43
2022-10-02T11:44:39.660Z,88.38
2022-10-02T11:45:38.676Z,87.43
2022-10-02T11:46:38.669Z,86.68
2022-10-02T11:47:38.643Z,86.88
2022-10-02T11:48:38.672Z,86.27
2022-10-02T11:49:38.602Z,85.93
2022-10-02T11:50:38.583Z,85.93
2022-10-02T11:51:39.114Z,85.88
2022-10-02T11:52:38.596Z,84.87
2022-10-02T11:53:38.554Z,84.27
2022-10-02T11:54:38.543Z,84.06
2022-10-02T11:55:38.588Z,83.65
2022-10-02T11:56:38.612Z,82.95
2022-10-02T11:57:38.581Z,82.70
2022-10-02T11:58:38.564Z,81.79
2022-10-02T11:59:38.504Z,81.39
2022-10-02T12:00:38.476Z,81.29
2022-10-02T12:01:38.997Z,81.25
2022-10-02T12:02:38.507Z,81.99
2022-10-02T12:03:38.467Z,81.25
2022-10-02T12:04:38.435Z,80.24
2022-10-02T12:05:38.421Z,79.93
2022-10-02T12:06:38.421Z,80.74
2022-10-02T12:07:38.424Z,80.50
2022-10-02T12:08:38.398Z,79.90
2022-10-02T12:09:38.388Z,79.90
2022-10-02T12:10:38.370Z,79.08
2022-10-02T12:11:38.735Z,79.49
2022-10-02T12:12:38.381Z,79.15
2022-10-02T12:13:38.350Z,78.85
2022-10-02T12:14:38.329Z,79.15
2022-10-02T12:15:38.343Z,78.44
2022-10-02T12:16:38.367Z,78.71
2022-10-02T12:17:38.311Z,78.41
2022-10-02T12:18:38.311Z,77.76
2022-10-02T12:19:38.271Z,77.32
2022-10-02T12:20:38.289Z,76.92
2022-10-02T12:21:38.610Z,75.91
2022-10-02T12:22:38.242Z,75.91
2022-10-02T12:23:38.234Z,76.11
2022-10-02T12:24:38.215Z,75.60
2022-10-02T12:25:38.211Z,75.71
2022-10-02T12:26:38.208Z,75.98
2022-10-02T12:27:38.201Z,77.13
2022-10-02T12:28:38.193Z,78.14
2022-10-02T12:29:38.183Z,78.24
2022-10-02T12:30:38.165Z,78.34
2022-10-02T12:31:38.427Z,77.26
2022-10-02T12:32:38.126Z,77.77
2022-10-02T12:33:38.124Z,77.17
2022-10-02T12:34:38.134Z,76.66
2022-10-02T12:35:38.144Z,76.62
2022-10-02T12:36:38.106Z,76.97
2022-10-02T12:37:38.083Z,77.47
2022-10-02T12:38:38.096Z,76.35
2022-10-02T12:39:38.064Z,76.15
2022-10-02T12:40:38.061Z,76.12
2022-10-02T12:41:38.489Z,76.56
2022-10-02T12:42:38.037Z,77.00
2022-10-02T12:43:38.049Z,77.37
2022-10-02T12:44:38.021Z,76.32
2022-10-02T12:45:38.034Z,75.41
2022-10-02T12:46:37.996Z,76.35
2022-10-02T12:47:37.979Z,76.79
2022-10-02T12:48:37.988Z,76.50
2022-10-02T12:49:37.970Z,76.19
2022-10-02T12:50:37.956Z,76.09
2022-10-02T12:51:38.283Z,76.56
2022-10-02T12:52:37.948Z,75.58